Forreston, Illinois
Current Conditions -  °F | °C
As of 12:00 PM on Thursday 30 Oct 2014 (Local Time) from KFEP Reporting Station
Broken Clouds Broken Clouds  
Wind Chill: 43°   Ceiling: 9500
Heat Index: 47°   Visibility: 10mi
Dew Point: 35°   Wind: 8mph
Humidity: 63%   Direction: 250°WSW
Pressure: 30.12"   Gusts: NA
Location:  42.13°N, 89.58°W
Report Text: KFEP 301700Z AUTO 25007KT 10SM SCT085 BKN095 08/02 A3012 RMK AO2 T00820016
Loading
Personal Weather Stations






























Interactive Weather Map
Tropical Storm Tracking
New forecast layout! Learn more

10-Day Weather Forecast

Advertisements
Track Severe Weather on mobile